Latest Weather Observations for Bulman

IDD60801

Issued at 11:21 am CST Thursday 24 May 2018 (issued every 10 minutes, with the page automatically refreshed every 10 minutes)

About weather observations | Map of weather stations | Latest weather observations for NT | Other Formats
Station Details ID: 014627 Name: BULMAN Lat: -13.67 Lon: 134.34 Height: 103.4 m
Data from the previous 72 hours. | See also: Recent months at Bulman
Date/Time
CST
Temp
°C
App
Temp
°C
Dew
Point
°C
Rel
Hum
%
Delta-T
°C
Wind Press
QNH
hPa
Press
MSL
hPa
Rain since
9am
mm
Dir  Spd
km/h
Gust
km/h
Spd
kts
Gust
kts
24/11:00am 29.1 26.4 10.3 31 10.7 SE 15 26 8 14 1013.9 1013.3 0.0
24/10:30am 28.5 25.2 9.7 31 10.5 SE 17 32 9 17 1014.4 1013.9 0.0
24/10:00am 26.7 24.1 10.8 37 9.0 E 15 22 8 12 1014.6 1014.1 0.0
24/09:30am 26.3 25.0 12.4 42 8.1 E 11 20 6 11 1015.0 1014.5 0.0
24/09:00am 24.8 23.7 13.0 47 6.9 E 11 19 6 10 1014.9 1014.4 0.0
24/08:30am 24.2 24.2 14.3 54 5.9 ESE 7 15 4 8 1014.6 1014.1 0.0
24/08:00am 22.3 23.1 15.9 67 3.9 SE 6 7 3 4 1014.3 1013.8 0.0
24/07:30am 19.6 21.5 16.8 84 1.7 SW 2 7 1 4 1014.1 1013.6 0.0
24/07:00am 18.4 19.8 15.5 83 1.7 NW 2 6 1 3 1014.0 1013.5 0.0
24/06:30am 19.1 19.9 15.8 81 2.0 SSW 6 9 3 5 1013.7 1013.1 0.0
24/06:00am 19.5 20.3 15.8 79 2.2 SW 6 7 3 4 1013.3 1012.7 0.0
24/05:30am 19.7 20.6 16.7 83 1.8 SSE 7 9 4 5 1013.2 1012.6 0.0
24/05:00am 18.5 19.3 15.9 85 1.5 ESE 6 9 3 5 1013.3 1012.7 0.0
24/04:30am 18.4 19.1 15.6 84 1.7 SSE 6 7 3 4 1013.1 1012.5 0.0
24/04:00am 18.2 19.8 14.9 81 1.9 CALM 0 6 0 3 1013.2 1012.6 0.0
24/03:30am 18.5 18.9 15.2 81 1.9 W 7 9 4 5 1013.2 1012.6 0.0
24/03:00am 18.5 18.7 14.8 79 2.2 SSW 7 7 4 4 1013.2 1012.6 0.0
24/02:30am 18.5 19.0 14.0 75 2.6 SSE 4 7 2 4 1013.5 1012.9 0.0
24/02:00am 19.1 19.3 14.1 73 2.9 N 6 7 3 4 1013.8 1013.2 0.0
24/01:30am 19.8 19.8 13.7 68 3.5 SSE 6 6 3 3 1014.2 1013.7 0.0
24/01:00am 20.3 21.0 13.5 65 3.9 SSE 2 7 1 4 1014.4 1013.9 0.0
24/12:30am 20.9 21.8 12.8 60 4.6 CALM 0 0 0 0 1014.7 1014.2 0.0
24/12:00am 22.2 22.0 13.0 56 5.3 SSE 6 7 3 4 1014.9 1014.4 0.0
 
Date/Time
CST
Temp
°C
App
Temp
°C
Dew
Point
°C
Rel
Hum
%
Delta-T
°C
Wind Press
QNH
hPa
Press
MSL
hPa
Rain since
9am
mm
Dir  Spd
km/h
Gust
km/h
Spd
kts
Gust
kts
23/11:30pm 22.1 22.5 12.4 54 5.5 ESE 2 7 1 4 1015.0 1014.5 0.0
23/11:00pm 22.7 22.3 12.3 52 5.9 SE 6 11 3 6 1015.2 1014.7 0.0
23/10:30pm 23.3 22.7 12.3 50 6.3 SSE 7 13 4 7 1015.1 1014.6 0.0
23/10:00pm 23.4 23.0 12.4 50 6.3 SE 6 11 3 6 1015.2 1014.7 0.0
23/09:30pm 23.6 22.9 11.3 46 6.9 SE 6 7 3 4 1015.1 1014.6 0.0
23/09:00pm 24.7 23.7 10.9 42 7.7 ESE 7 11 4 6 1015.1 1014.6 0.0
23/08:30pm 25.9 24.3 10.1 37 8.8 ESE 9 15 5 8 1015.0 1014.5 0.0
23/08:00pm 26.4 25.1 10.1 36 9.1 ESE 7 13 4 7 1014.7 1014.2 0.0
23/07:30pm 26.7 25.2 10.4 36 9.2 SE 9 13 5 7 1014.3 1013.8 0.0
23/07:00pm 27.1 25.7 10.8 36 9.2 ESE 9 15 5 8 1014.0 1013.5 0.0
23/06:30pm 27.9 26.0 10.6 34 9.8 SE 11 19 6 10 1013.6 1013.0 0.0
23/06:00pm 28.4 26.3 11.0 34 10.0 ESE 13 22 7 12 1013.2 1012.6 0.0
23/05:30pm 29.3 27.1 10.9 32 10.6 ESE 13 22 7 12 1012.8 1012.2 0.0
23/05:00pm 30.0 27.6 11.5 32 10.8 ESE 15 24 8 13 1012.7 1012.1 0.0
23/04:30pm 30.5 28.5 11.5 31 11.1 ESE 13 24 7 13 1012.4 1011.8 0.0
23/04:00pm 30.6 27.7 11.1 30 11.3 SE 17 30 9 16 1012.5 1011.9 0.0
23/03:30pm 30.4 27.7 10.4 29 11.5 ESE 15 28 8 15 1012.5 1011.9 0.0
23/03:00pm 30.6 27.2 10.5 29 11.5 SE 19 32 10 17 1012.6 1012.0 0.0
23/02:30pm 31.0 28.5 9.8 27 12.1 ESE 13 26 7 14 1012.8 1012.2 0.0
23/02:00pm 30.7 27.9 10.1 28 11.8 ESE 15 24 8 13 1013.0 1012.4 0.0
23/01:30pm 29.9 27.1 9.9 29 11.3 SE 15 26 8 14 1013.4 1012.8 0.0
23/01:00pm 30.4 27.3 10.4 29 11.4 ESE 17 30 9 16 1013.9 1013.3 0.0
23/12:30pm 29.4 26.3 9.0 28 11.4 SE 15 24 8 13 1014.6 1014.1 0.0
23/12:00pm 28.2 24.4 7.4 27 11.2 E 17 24 9 13 1015.1 1014.6 0.0
23/11:30am 28.7 24.6 7.9 27 11.3 ESE 19 28 10 15 1015.5 1015.0 0.0
23/11:00am 28.8 25.2 8.5 28 11.2 ESE 17 30 9 16 1016.0 1015.5 0.0
23/10:30am 27.1 23.5 8.5 31 10.1 SE 17 26 9 14 1016.5 1015.9 0.0
23/10:00am 26.9 23.3 9.7 34 9.6 SE 19 28 10 15 1016.6 1016.0 0.0
23/09:30am 26.2 22.9 9.5 35 9.2 SE 17 26 9 14 1016.6 1016.0 0.0
23/09:00am 25.1 22.5 10.6 40 8.1 SE 15 28 8 15 1016.6 1016.0 0.0
23/08:30am 23.8 21.9 11.8 47 6.8 SE 13 20 7 11 1016.2 1015.7 0.0
23/08:00am 23.0 22.3 13.2 54 5.7 SE 9 17 5 9 1016.2 1015.7 0.0
23/07:30am 21.6 20.9 13.2 59 4.8 SE 9 13 5 7 1015.9 1015.4 0.0
23/07:00am 21.0 20.2 12.9 60 4.6 SSE 9 13 5 7 1015.4 1014.9 0.0
23/06:30am 21.4 20.3 13.1 59 4.8 SSE 11 15 6 8 1015.2 1014.7 0.0
23/06:00am 21.4 20.8 13.6 61 4.5 S 9 15 5 8 1015.0 1014.5 0.0
23/05:30am 21.2 20.8 14.1 64 4.1 SSE 9 13 5 7 1014.5 1014.0 0.0
23/05:00am 21.2 21.6 15.3 69 3.5 SSE 7 13 4 7 1014.3 1013.8 0.0
23/04:30am 20.9 21.3 15.2 70 3.4 S 7 11 4 6 1014.2 1013.7 0.0
23/04:00am 21.0 21.5 15.1 69 3.5 S 6 9 3 5 1014.4 1013.9 0.0
23/03:30am 21.9 22.6 15.5 67 3.8 SSE 6 9 3 5 1014.6 1014.1 0.0
23/03:00am 22.1 22.7 15.9 68 3.7 SE 7 11 4 6 1014.9 1014.4 0.0
23/02:30am 22.0 23.5 15.8 68 3.7 E 2 7 1 4 1015.1 1014.6 0.0
23/02:00am 22.6 23.2 15.9 66 4.1 SE 7 9 4 5 1015.1 1014.6 0.0
23/01:30am 23.0 24.0 16.8 68 3.8 SE 7 11 4 6 1015.6 1015.1 0.0
23/01:00am 22.9 24.0 17.1 70 3.6 ESE 7 11 4 6 1016.1 1015.6 0.0
23/12:30am 22.8 24.2 17.3 71 3.4 ESE 6 9 3 5 1016.2 1015.7 0.0
23/12:00am 23.2 24.3 17.2 69 3.7 ESE 7 11 4 6 1016.5 1015.9 0.0
 
Date/Time
CST
Temp
°C
App
Temp
°C
Dew
Point
°C
Rel
Hum
%
Delta-T
°C
Wind Press
QNH
hPa
Press
MSL
hPa
Rain since
9am
mm
Dir  Spd
km/h
Gust
km/h
Spd
kts
Gust
kts
22/11:30pm 23.5 24.7 17.3 68 3.8 ESE 7 13 4 7 1016.7 1016.1 0.0
22/11:00pm 23.6 23.9 17.1 67 4.0 ESE 11 17 6 9 1016.7 1016.1 0.0
22/10:30pm 24.0 24.3 17.0 65 4.3 SE 11 15 6 8 1017.0 1016.4 0.0
22/10:00pm 24.2 24.9 17.0 64 4.5 SE 9 13 5 7 1017.0 1016.4 0.0
22/09:30pm 24.5 24.1 16.2 60 5.1 ESE 13 20 7 11 1016.8 1016.2 0.0
22/09:00pm 25.0 24.6 15.3 55 5.9 ESE 11 17 6 9 1016.7 1016.1 0.0
22/08:30pm 25.4 25.2 14.8 52 6.4 ESE 9 15 5 8 1016.4 1015.8 0.0
22/08:00pm 25.9 25.1 14.1 48 7.0 ESE 11 19 6 10 1015.9 1015.4 0.0
22/07:30pm 26.2 25.5 13.3 45 7.6 ESE 9 15 5 8 1015.8 1015.3 0.0
22/07:00pm 26.3 25.4 12.7 43 7.9 ESE 9 15 5 8 1015.2 1014.7 0.0
22/06:30pm 27.1 25.6 12.0 39 8.7 ESE 11 19 6 10 1015.0 1014.5 0.0
22/06:00pm 27.9 26.3 11.5 36 9.4 ESE 11 20 6 11 1014.6 1014.1 0.0
22/05:30pm 28.7 26.6 11.3 34 10.0 ESE 13 22 7 12 1014.0 1013.5 0.0
22/05:00pm 29.5 26.6 11.1 32 10.6 ESE 17 32 9 17 1013.4 1012.8 0.0
22/04:30pm 29.8 26.4 10.4 30 11.1 ESE 19 32 10 17 1013.0 1012.4 0.0
22/04:00pm 29.6 26.5 10.2 30 11.0 ESE 17 28 9 15 1012.9 1012.3 0.0
22/03:30pm 29.5 26.0 10.1 30 11.0 ESE 19 30 10 16 1013.2 1012.6 0.0
22/03:00pm 29.7 26.5 9.8 29 11.2 ESE 17 30 9 16 1013.4 1012.8 0.0
22/02:30pm 29.9 26.2 9.4 28 11.5 ESE 19 30 10 16 1013.7 1013.1 0.0
22/02:00pm 30.6 26.9 9.5 27 11.9 ESE 19 30 10 16 1013.7 1013.1 0.0
22/01:30pm 29.8 26.2 8.2 26 11.9 ESE 17 26 9 14 1014.2 1013.7 0.0
22/01:00pm 29.1 24.8 7.7 26 11.6 SE 20 26 11 14 1014.7 1014.2 0.0
22/12:30pm 28.8 24.6 7.4 26 11.6 ESE 19 28 10 15 1015.0 1014.5 0.0
22/12:00pm 28.1 23.8 6.8 26 11.3 SE 19 32 10 17 1015.7 1015.2 0.0
22/11:30am 28.3 24.1 7.5 27 11.2 SE 19 30 10 16 1016.1 1015.6 0.0
22/11:00am 27.4 22.2 5.6 25 11.3 ESE 22 33 12 18 1016.6 1016.0 0.0
22/10:30am 26.7 21.9 5.6 26 10.9 SE 20 30 11 16 1016.7 1016.1 0.0
22/10:00am 26.1 20.9 5.7 27 10.5 ESE 22 35 12 19 1017.2 1016.6 0.0
22/09:30am 25.5 20.4 6.2 29 10.0 ESE 22 32 12 17 1017.3 1016.7 0.0
22/09:00am 24.9 21.2 8.0 34 9.0 SE 17 28 9 15 1016.8 1016.2 0.0
22/08:30am 23.7 19.6 8.6 38 8.1 SE 20 28 11 15 1016.5 1015.9 0.0
22/08:00am 22.9 20.1 10.0 44 7.1 SE 15 26 8 14 1016.1 1015.6 0.0
22/07:30am 22.1 19.6 10.9 49 6.2 SE 15 26 8 14 1015.9 1015.4 0.0
22/07:00am 21.7 20.6 13.1 58 4.9 SSE 11 17 6 9 1015.8 1015.3 0.0
22/06:30am 21.4 20.9 15.0 67 3.8 SSE 11 19 6 10 1015.3 1014.8 0.0
22/06:00am 21.1 21.2 15.6 71 3.3 SSE 9 17 5 9 1015.1 1014.6 0.0
22/05:30am 21.1 21.2 15.4 70 3.4 SSE 9 13 5 7 1014.9 1014.4 0.0
22/05:00am 21.3 21.6 16.0 72 3.2 SSE 9 15 5 8 1014.8 1014.3 0.0
22/04:30am 21.1 22.0 16.5 75 2.8 S 7 11 4 6 1015.0 1014.5 0.0
22/04:00am 21.2 22.3 17.0 77 2.6 SSE 7 9 4 5 1014.7 1014.2 0.0
22/03:30am 21.6 22.7 17.2 76 2.7 SE 7 9 4 5 1014.8 1014.3 0.0
22/03:00am 21.9 23.3 17.3 75 2.8 ESE 6 9 3 5 1014.8 1014.3 0.0
22/02:30am 22.2 23.4 17.3 74 3.0 SE 7 11 4 6 1014.8 1014.3 0.0
22/02:00am 22.4 23.1 17.1 72 3.3 SE 9 13 5 7 1015.1 1014.6 0.0
22/01:30am 22.2 23.5 17.1 73 3.1 N 6 9 3 5 1015.3 1014.8 0.0
22/01:00am 22.9 25.0 17.1 70 3.6 ENE 2 7 1 4 1015.7 1015.2 0.0
22/12:30am 23.6 24.4 17.3 67 3.9 SE 9 13 5 7 1015.9 1015.4 0.0
22/12:00am 24.0 25.5 17.5 67 4.1 SE 6 11 3 6 1016.1 1015.6 0.0
 
Date/Time
CST
Temp
°C
App
Temp
°C
Dew
Point
°C
Rel
Hum
%
Delta-T
°C
Wind Press
QNH
hPa
Press
MSL
hPa
Rain since
9am
mm
Dir  Spd
km/h
Gust
km/h
Spd
kts
Gust
kts
21/11:30pm 24.1 25.4 17.6 67 4.1 ESE 7 11 4 6 1016.4 1015.8 0.0
21/11:00pm 24.5 25.0 17.5 65 4.4 ESE 11 22 6 12 1016.7 1016.1 0.0
21/10:30pm 24.6 25.6 17.8 66 4.3 ESE 9 15 5 8 1016.7 1016.1 0.0
21/10:00pm 24.7 25.4 17.9 66 4.3 SE 11 19 6 10 1016.8 1016.2 0.0
21/09:30pm 24.9 25.7 18.1 66 4.3 ESE 11 15 6 8 1016.9 1016.3 0.0
21/09:00pm 24.9 26.0 18.1 66 4.3 SE 9 15 5 8 1016.9 1016.3 0.0
21/08:30pm 25.1 26.2 18.1 65 4.4 SE 9 15 5 8 1016.7 1016.1 0.0
21/08:00pm 25.6 25.6 18.0 63 4.8 ESE 15 24 8 13 1016.2 1015.7 0.0
21/07:30pm 26.1 26.2 17.5 59 5.4 SE 13 22 7 12 1015.6 1015.1 0.0
21/07:00pm 26.6 26.3 17.4 57 5.8 ESE 15 24 8 13 1015.1 1014.6 0.0
21/06:30pm 27.3 26.2 17.2 54 6.3 SE 19 32 10 17 1014.5 1014.0 0.0
21/06:00pm 28.0 27.5 16.9 51 7.0 SE 15 28 8 15 1014.1 1013.6 0.0
21/05:30pm 28.8 28.2 16.7 48 7.6 ESE 15 24 8 13 1013.8 1013.2 0.0
21/05:00pm 29.4 29.2 16.6 46 8.0 ESE 13 24 7 13 1013.3 1012.7 0.0
21/04:30pm 29.9 29.2 16.3 43 8.5 ENE 15 28 8 15 1013.0 1012.4 0.0
21/04:00pm 30.4 29.4 15.7 41 9.1 ENE 15 26 8 14 1012.7 1012.1 0.0
21/03:30pm 30.6 28.5 14.7 38 9.7 E 19 28 10 15 1012.5 1011.9 0.0
21/03:00pm 31.8 29.8 14.0 34 10.8 E 17 26 9 14 1012.4 1011.8 0.0
21/02:30pm 32.2 30.0 13.4 32 11.4 ESE 17 26 9 14 1012.7 1012.1 0.0
21/02:00pm 31.5 28.8 12.8 32 11.2 ESE 19 30 10 16 1013.1 1012.5 0.0
21/01:30pm 32.1 29.5 13.3 31 11.3 ESE 19 28 10 15 1013.3 1012.7 0.0
21/01:00pm 31.6 28.9 12.9 32 11.2 ESE 19 28 10 15 1013.7 1013.1 0.0
21/12:30pm 31.5 28.7 13.3 33 10.9 E 20 37 11 20 1014.2 1013.7 0.0
21/12:00pm 31.0 28.2 13.3 34 10.6 SE 20 35 11 19 1014.7 1014.2 0.0
21/11:30am 30.7 27.6 13.5 35 10.3 ESE 22 37 12 20 1015.0 1014.5 0.0

Other Formats:

Comma delimited format used in spreadsheet applications
http://www.bom.gov.au/fwo/IDD60801/IDD60801.94143.axf

JavaScript Object Notation format (JSON) in row-major order
http://www.bom.gov.au/fwo/IDD60801/IDD60801.94143.json